sensor_id;sensor_type;location;lat;lon;timestamp;temperature;humidity
78694;SHT31;68029;51.978;5.646;2023-04-03T00:02:01;6.6;56.4
78694;SHT31;68029;51.978;5.646;2023-04-03T00:04:31;6.6;56.5
78694;SHT31;68029;51.978;5.646;2023-04-03T00:07:01;6.6;56.8
78694;SHT31;68029;51.978;5.646;2023-04-03T00:09:30;6.6;56.4
78694;SHT31;68029;51.978;5.646;2023-04-03T00:12:00;6.5;56.7
78694;SHT31;68029;51.978;5.646;2023-04-03T00:14:29;6.5;56.6
78694;SHT31;68029;51.978;5.646;2023-04-03T00:16:59;6.5;56.4
78694;SHT31;68029;51.978;5.646;2023-04-03T00:19:28;6.4;56.7
78694;SHT31;68029;51.978;5.646;2023-04-03T00:21:58;6.4;56.7
78694;SHT31;68029;51.978;5.646;2023-04-03T00:24:27;6.4;56.7
78694;SHT31;68029;51.978;5.646;2023-04-03T00:26:57;6.4;56.6
78694;SHT31;68029;51.978;5.646;2023-04-03T00:29:27;6.3;56.6
78694;SHT31;68029;51.978;5.646;2023-04-03T00:31:56;6.3;56.8
78694;SHT31;68029;51.978;5.646;2023-04-03T00:34:26;6.3;56.7
78694;SHT31;68029;51.978;5.646;2023-04-03T00:36:57;6.3;57.1
78694;SHT31;68029;51.978;5.646;2023-04-03T00:39:28;6.2;56.8
78694;SHT31;68029;51.978;5.646;2023-04-03T00:41:58;6.2;57.1
78694;SHT31;68029;51.978;5.646;2023-04-03T00:45:25;6.2;57.6
78694;SHT31;68029;51.978;5.646;2023-04-03T00:47:56;6.2;57.1
78694;SHT31;68029;51.978;5.646;2023-04-03T00:50:29;6.2;57.5
78694;SHT31;68029;51.978;5.646;2023-04-03T00:52:59;6.2;56.9
78694;SHT31;68029;51.978;5.646;2023-04-03T00:55:29;6.2;57.1
78694;SHT31;68029;51.978;5.646;2023-04-03T00:58:00;6.1;57.3
78694;SHT31;68029;51.978;5.646;2023-04-03T01:00:30;6.1;57.4
78694;SHT31;68029;51.978;5.646;2023-04-03T01:03:02;6.1;57.2
78694;SHT31;68029;51.978;5.646;2023-04-03T01:05:34;6.0;57.3
78694;SHT31;68029;51.978;5.646;2023-04-03T01:08:04;6.0;58.1
78694;SHT31;68029;51.978;5.646;2023-04-03T01:10:36;6.0;58.0
78694;SHT31;68029;51.978;5.646;2023-04-03T01:13:22;6.0;57.6
78694;SHT31;68029;51.978;5.646;2023-04-03T01:15:53;5.9;58.3
78694;SHT31;68029;51.978;5.646;2023-04-03T01:18:24;5.9;58.1
78694;SHT31;68029;51.978;5.646;2023-04-03T01:21:56;5.9;58.3
78694;SHT31;68029;51.978;5.646;2023-04-03T01:24:34;5.9;58.3
78694;SHT31;68029;51.978;5.646;2023-04-03T01:27:09;5.9;58.5
78694;SHT31;68029;51.978;5.646;2023-04-03T01:29:40;5.9;58.4
78694;SHT31;68029;51.978;5.646;2023-04-03T01:32:11;5.8;58.1
78694;SHT31;68029;51.978;5.646;2023-04-03T01:34:41;5.8;58.5
78694;SHT31;68029;51.978;5.646;2023-04-03T01:37:10;5.8;58.8
78694;SHT31;68029;51.978;5.646;2023-04-03T01:39:40;5.8;58.6
78694;SHT31;68029;51.978;5.646;2023-04-03T01:42:09;5.7;59.3
78694;SHT31;68029;51.978;5.646;2023-04-03T01:44:39;5.7;59.1
78694;SHT31;68029;51.978;5.646;2023-04-03T01:47:11;5.7;58.9
78694;SHT31;68029;51.978;5.646;2023-04-03T01:49:41;5.7;59.0
78694;SHT31;68029;51.978;5.646;2023-04-03T01:52:10;5.7;59.0
78694;SHT31;68029;51.978;5.646;2023-04-03T01:54:40;5.6;59.2
78694;SHT31;68029;51.978;5.646;2023-04-03T01:57:09;5.6;59.3
78694;SHT31;68029;51.978;5.646;2023-04-03T01:59:41;5.6;59.6
78694;SHT31;68029;51.978;5.646;2023-04-03T02:02:10;5.5;59.6
78694;SHT31;68029;51.978;5.646;2023-04-03T02:04:42;5.5;60.2
78694;SHT31;68029;51.978;5.646;2023-04-03T02:07:12;5.5;60.0
78694;SHT31;68029;51.978;5.646;2023-04-03T02:09:41;5.4;60.3
78694;SHT31;68029;51.978;5.646;2023-04-03T02:12:11;5.4;60.3
78694;SHT31;68029;51.978;5.646;2023-04-03T02:14:41;5.3;60.7
78694;SHT31;68029;51.978;5.646;2023-04-03T02:17:10;5.3;60.9
78694;SHT31;68029;51.978;5.646;2023-04-03T02:19:42;5.3;61.2
78694;SHT31;68029;51.978;5.646;2023-04-03T02:22:11;5.3;61.1
78694;SHT31;68029;51.978;5.646;2023-04-03T02:24:41;5.3;61.3
78694;SHT31;68029;51.978;5.646;2023-04-03T02:27:12;5.2;61.5
78694;SHT31;68029;51.978;5.646;2023-04-03T02:29:43;5.2;61.4
78694;SHT31;68029;51.978;5.646;2023-04-03T02:32:12;5.2;61.9
78694;SHT31;68029;51.978;5.646;2023-04-03T02:34:42;5.2;62.0
78694;SHT31;68029;51.978;5.646;2023-04-03T02:37:12;5.2;62.1
78694;SHT31;68029;51.978;5.646;2023-04-03T02:39:42;5.2;62.1
78694;SHT31;68029;51.978;5.646;2023-04-03T02:42:12;5.2;62.2
78694;SHT31;68029;51.978;5.646;2023-04-03T02:44:42;5.2;62.1
78694;SHT31;68029;51.978;5.646;2023-04-03T02:47:12;5.2;62.2
78694;SHT31;68029;51.978;5.646;2023-04-03T02:49:41;5.2;62.4
78694;SHT31;68029;51.978;5.646;2023-04-03T02:52:14;5.2;62.4
78694;SHT31;68029;51.978;5.646;2023-04-03T02:54:44;5.2;62.7
78694;SHT31;68029;51.978;5.646;2023-04-03T02:57:13;5.1;62.8
78694;SHT31;68029;51.978;5.646;2023-04-03T02:59:43;5.1;62.8
78694;SHT31;68029;51.978;5.646;2023-04-03T03:02:14;5.1;63.2
78694;SHT31;68029;51.978;5.646;2023-04-03T03:04:44;5.2;62.6
78694;SHT31;68029;51.978;5.646;2023-04-03T03:07:13;5.2;62.6
78694;SHT31;68029;51.978;5.646;2023-04-03T03:09:43;5.2;62.5
78694;SHT31;68029;51.978;5.646;2023-04-03T03:12:12;5.1;62.5
78694;SHT31;68029;51.978;5.646;2023-04-03T03:14:45;5.1;62.8
78694;SHT31;68029;51.978;5.646;2023-04-03T03:17:14;5.1;62.6
78694;SHT31;68029;51.978;5.646;2023-04-03T03:19:44;5.1;62.7
78694;SHT31;68029;51.978;5.646;2023-04-03T03:22:14;5.1;62.7
78694;SHT31;68029;51.978;5.646;2023-04-03T03:24:43;5.1;62.8
78694;SHT31;68029;51.978;5.646;2023-04-03T03:27:13;5.1;63.0
78694;SHT31;68029;51.978;5.646;2023-04-03T03:29:43;5.0;63.4
78694;SHT31;68029;51.978;5.646;2023-04-03T03:32:13;5.0;63.2
78694;SHT31;68029;51.978;5.646;2023-04-03T04:58:18;5.1;61.9
78694;SHT31;68029;51.978;5.646;2023-04-03T05:00:50;4.9;62.7
78694;SHT31;68029;51.978;5.646;2023-04-03T05:03:19;4.8;63.2
78694;SHT31;68029;51.978;5.646;2023-04-03T05:05:49;4.8;63.4
78694;SHT31;68029;51.978;5.646;2023-04-03T05:08:20;4.7;63.5
78694;SHT31;68029;51.978;5.646;2023-04-03T05:10:51;4.7;63.7
78694;SHT31;68029;51.978;5.646;2023-04-03T05:13:21;4.6;63.8
78694;SHT31;68029;51.978;5.646;2023-04-03T05:15:50;4.6;63.9
78694;SHT31;68029;51.978;5.646;2023-04-03T05:18:20;4.5;64.2
78694;SHT31;68029;51.978;5.646;2023-04-03T05:20:50;4.4;64.3
78694;SHT31;68029;51.978;5.646;2023-04-03T05:23:21;4.4;64.7
78694;SHT31;68029;51.978;5.646;2023-04-03T05:25:51;4.3;64.9
78694;SHT31;68029;51.978;5.646;2023-04-03T05:28:21;4.3;65.0
78694;SHT31;68029;51.978;5.646;2023-04-03T05:30:55;4.2;65.2
78694;SHT31;68029;51.978;5.646;2023-04-03T05:33:26;4.1;65.5
78694;SHT31;68029;51.978;5.646;2023-04-03T05:35:55;4.1;65.9
78694;SHT31;68029;51.978;5.646;2023-04-03T05:38:25;4.0;66.2
78694;SHT31;68029;51.978;5.646;2023-04-03T05:40:56;4.0;66.0
78694;SHT31;68029;51.978;5.646;2023-04-03T05:43:26;4.0;66.3
78694;SHT31;68029;51.978;5.646;2023-04-03T05:45:57;3.9;66.5
78694;SHT31;68029;51.978;5.646;2023-04-03T05:48:27;3.9;66.9
78694;SHT31;68029;51.978;5.646;2023-04-03T05:50:56;3.9;67.3
78694;SHT31;68029;51.978;5.646;2023-04-03T05:53:29;4.0;67.2
78694;SHT31;68029;51.978;5.646;2023-04-03T05:56:00;4.0;67.2
78694;SHT31;68029;51.978;5.646;2023-04-03T05:58:30;4.0;66.9
78694;SHT31;68029;51.978;5.646;2023-04-03T06:00:59;4.1;66.8
78694;SHT31;68029;51.978;5.646;2023-04-03T06:05:55;4.9;63.3
78694;SHT31;68029;51.978;5.646;2023-04-03T06:08:24;5.0;63.5
78694;SHT31;68029;51.978;5.646;2023-04-03T06:10:54;5.1;62.8
78694;SHT31;68029;51.978;5.646;2023-04-03T06:13:24;5.2;62.5
78694;SHT31;68029;51.978;5.646;2023-04-03T06:15:53;5.2;62.3
78694;SHT31;68029;51.978;5.646;2023-04-03T06:18:23;5.2;61.9
78694;SHT31;68029;51.978;5.646;2023-04-03T06:20:53;5.3;61.9
78694;SHT31;68029;51.978;5.646;2023-04-03T06:23:22;5.3;62.6
78694;SHT31;68029;51.978;5.646;2023-04-03T06:25:52;5.3;61.8
78694;SHT31;68029;51.978;5.646;2023-04-03T06:28:22;5.4;61.8
78694;SHT31;68029;51.978;5.646;2023-04-03T06:30:51;5.4;61.6
78694;SHT31;68029;51.978;5.646;2023-04-03T06:33:21;5.5;61.3
78694;SHT31;68029;51.978;5.646;2023-04-03T06:35:55;5.6;61.0
78694;SHT31;68029;51.978;5.646;2023-04-03T06:40:54;6.4;58.3
78694;SHT31;68029;51.978;5.646;2023-04-03T06:43:24;6.6;57.0
78694;SHT31;68029;51.978;5.646;2023-04-03T06:45:54;6.7;57.3
78694;SHT31;68029;51.978;5.646;2023-04-03T06:48:23;6.8;56.2
78694;SHT31;68029;51.978;5.646;2023-04-03T06:50:53;6.8;56.5
78694;SHT31;68029;51.978;5.646;2023-04-03T06:53:23;6.9;56.4
78694;SHT31;68029;51.978;5.646;2023-04-03T06:55:53;6.9;56.5
78694;SHT31;68029;51.978;5.646;2023-04-03T06:58:23;7.0;56.3
78694;SHT31;68029;51.978;5.646;2023-04-03T07:00:52;7.1;55.7
78694;SHT31;68029;51.978;5.646;2023-04-03T07:03:22;7.2;56.0
78694;SHT31;68029;51.978;5.646;2023-04-03T07:05:51;7.3;55.3
78694;SHT31;68029;51.978;5.646;2023-04-03T07:08:21;7.5;54.8
78694;SHT31;68029;51.978;5.646;2023-04-03T07:10:53;7.6;54.8
78694;SHT31;68029;51.978;5.646;2023-04-03T07:13:23;7.8;54.7
78694;SHT31;68029;51.978;5.646;2023-04-03T07:15:53;7.9;53.6
78694;SHT31;68029;51.978;5.646;2023-04-03T07:18:24;8.1;52.6
78694;SHT31;68029;51.978;5.646;2023-04-03T07:20:56;8.3;52.2
78694;SHT31;68029;51.978;5.646;2023-04-03T07:23:26;8.4;51.7
78694;SHT31;68029;51.978;5.646;2023-04-03T07:25:56;8.5;50.3
78694;SHT31;68029;51.978;5.646;2023-04-03T07:28:26;8.7;50.6
78694;SHT31;68029;51.978;5.646;2023-04-03T07:31:03;8.8;49.7
78694;SHT31;68029;51.978;5.646;2023-04-03T07:33:34;8.9;49.7
78694;SHT31;68029;51.978;5.646;2023-04-03T07:36:06;9.1;48.5
78694;SHT31;68029;51.978;5.646;2023-04-03T07:38:37;9.2;47.7
78694;SHT31;68029;51.978;5.646;2023-04-03T07:41:11;9.3;46.9
78694;SHT31;68029;51.978;5.646;2023-04-03T07:43:42;9.4;46.5
78694;SHT31;68029;51.978;5.646;2023-04-03T07:46:12;9.5;46.9
78694;SHT31;68029;51.978;5.646;2023-04-03T07:48:42;9.6;47.4
78694;SHT31;68029;51.978;5.646;2023-04-03T07:51:12;9.7;46.1
78694;SHT31;68029;51.978;5.646;2023-04-03T07:53:42;9.8;46.4
78694;SHT31;68029;51.978;5.646;2023-04-03T07:56:12;10.0;45.9
78694;SHT31;68029;51.978;5.646;2023-04-03T07:58:42;10.1;45.8
78694;SHT31;68029;51.978;5.646;2023-04-03T08:01:13;10.3;45.0
78694;SHT31;68029;51.978;5.646;2023-04-03T08:03:44;10.5;44.1
78694;SHT31;68029;51.978;5.646;2023-04-03T08:06:14;10.7;42.2
78694;SHT31;68029;51.978;5.646;2023-04-03T08:08:43;10.9;40.6
78694;SHT31;68029;51.978;5.646;2023-04-03T08:11:16;11.0;41.5
78694;SHT31;68029;51.978;5.646;2023-04-03T08:13:46;11.2;41.3
78694;SHT31;68029;51.978;5.646;2023-04-03T08:16:20;11.3;41.6
78694;SHT31;68029;51.978;5.646;2023-04-03T08:18:50;11.4;38.2
78694;SHT31;68029;51.978;5.646;2023-04-03T08:21:20;11.5;39.0
78694;SHT31;68029;51.978;5.646;2023-04-03T08:23:50;11.7;38.4
78694;SHT31;68029;51.978;5.646;2023-04-03T08:26:21;11.8;38.0
78694;SHT31;68029;51.978;5.646;2023-04-03T08:28:50;12.0;36.5
78694;SHT31;68029;51.978;5.646;2023-04-03T08:31:20;12.1;34.5
78694;SHT31;68029;51.978;5.646;2023-04-03T08:33:49;12.2;34.8
78694;SHT31;68029;51.978;5.646;2023-04-03T08:36:21;12.3;35.7
78694;SHT31;68029;51.978;5.646;2023-04-03T08:38:54;12.4;32.0
78694;SHT31;68029;51.978;5.646;2023-04-03T08:41:29;12.5;33.0
78694;SHT31;68029;51.978;5.646;2023-04-03T08:44:17;12.6;30.6
78694;SHT31;68029;51.978;5.646;2023-04-03T08:47:11;12.7;30.9
78694;SHT31;68029;51.978;5.646;2023-04-03T08:49:44;12.8;29.1
78694;SHT31;68029;51.978;5.646;2023-04-03T08:52:21;12.9;28.6
78694;SHT31;68029;51.978;5.646;2023-04-03T08:54:54;13.0;28.3
78694;SHT31;68029;51.978;5.646;2023-04-03T08:57:30;13.0;30.2
78694;SHT31;68029;51.978;5.646;2023-04-03T09:00:14;13.2;28.2
78694;SHT31;68029;51.978;5.646;2023-04-03T09:02:46;13.3;25.0
78694;SHT31;68029;51.978;5.646;2023-04-03T09:05:19;13.4;25.8
78694;SHT31;68029;51.978;5.646;2023-04-03T09:07:57;13.4;26.3
78694;SHT31;68029;51.978;5.646;2023-04-03T09:10:33;13.5;28.3
78694;SHT31;68029;51.978;5.646;2023-04-03T09:13:10;13.6;22.8
78694;SHT31;68029;51.978;5.646;2023-04-03T09:15:44;13.7;23.5
78694;SHT31;68029;51.978;5.646;2023-04-03T09:18:19;13.7;22.8
78694;SHT31;68029;51.978;5.646;2023-04-03T09:20:59;13.7;22.4
78694;SHT31;68029;51.978;5.646;2023-04-03T09:23:36;13.8;21.3
78694;SHT31;68029;51.978;5.646;2023-04-03T09:26:15;13.8;20.2
78694;SHT31;68029;51.978;5.646;2023-04-03T09:28:47;13.7;20.6
78694;SHT31;68029;51.978;5.646;2023-04-03T09:31:25;13.7;19.8
78694;SHT31;68029;51.978;5.646;2023-04-03T09:33:59;13.7;19.3
78694;SHT31;68029;51.978;5.646;2023-04-03T09:36:43;13.7;19.7
78694;SHT31;68029;51.978;5.646;2023-04-03T09:39:15;13.7;20.3
78694;SHT31;68029;51.978;5.646;2023-04-03T09:41:58;13.6;20.1
78694;SHT31;68029;51.978;5.646;2023-04-03T09:44:30;13.6;19.7
78694;SHT31;68029;51.978;5.646;2023-04-03T09:47:19;13.7;20.7
78694;SHT31;68029;51.978;5.646;2023-04-03T09:50:15;13.7;22.2
78694;SHT31;68029;51.978;5.646;2023-04-03T09:52:46;13.8;22.7
78694;SHT31;68029;51.978;5.646;2023-04-03T09:55:18;13.9;21.0
78694;SHT31;68029;51.978;5.646;2023-04-03T09:57:54;14.1;21.1
78694;SHT31;68029;51.978;5.646;2023-04-03T10:00:28;14.3;21.4
78694;SHT31;68029;51.978;5.646;2023-04-03T10:02:59;14.4;18.6
78694;SHT31;68029;51.978;5.646;2023-04-03T10:05:33;14.5;19.6
78694;SHT31;68029;51.978;5.646;2023-04-03T10:08:15;14.5;20.6
78694;SHT31;68029;51.978;5.646;2023-04-03T10:10:47;14.5;20.7
78694;SHT31;68029;51.978;5.646;2023-04-03T10:13:20;14.5;22.6
78694;SHT31;68029;51.978;5.646;2023-04-03T10:15:56;14.6;24.0
78694;SHT31;68029;51.978;5.646;2023-04-03T10:18:36;14.8;21.2
78694;SHT31;68029;51.978;5.646;2023-04-03T10:21:20;15.0;20.2
78694;SHT31;68029;51.978;5.646;2023-04-03T10:23:54;15.0;21.1
78694;SHT31;68029;51.978;5.646;2023-04-03T10:26:37;15.1;21.1
78694;SHT31;68029;51.978;5.646;2023-04-03T10:29:19;15.3;20.7
78694;SHT31;68029;51.978;5.646;2023-04-03T10:32:01;15.4;19.8
78694;SHT31;68029;51.978;5.646;2023-04-03T10:34:38;15.5;20.3
78694;SHT31;68029;51.978;5.646;2023-04-03T10:37:19;15.5;21.1
78694;SHT31;68029;51.978;5.646;2023-04-03T10:39:56;15.5;20.6
78694;SHT31;68029;51.978;5.646;2023-04-03T10:42:36;15.6;20.6
78694;SHT31;68029;51.978;5.646;2023-04-03T10:45:21;15.6;20.2
78694;SHT31;68029;51.978;5.646;2023-04-03T10:50:42;15.7;20.6
78694;SHT31;68029;51.978;5.646;2023-04-03T10:53:23;15.8;20.9
78694;SHT31;68029;51.978;5.646;2023-04-03T10:56:05;15.8;21.6
78694;SHT31;68029;51.978;5.646;2023-04-03T10:58:41;15.9;21.0
78694;SHT31;68029;51.978;5.646;2023-04-03T11:01:16;15.8;21.5
78694;SHT31;68029;51.978;5.646;2023-04-03T11:03:54;15.8;22.0
78694;SHT31;68029;51.978;5.646;2023-04-03T11:06:33;15.8;22.0
78694;SHT31;68029;51.978;5.646;2023-04-03T11:09:10;15.9;21.0
78694;SHT31;68029;51.978;5.646;2023-04-03T11:11:43;15.8;21.9
78694;SHT31;68029;51.978;5.646;2023-04-03T11:14:24;15.8;21.5
78694;SHT31;68029;51.978;5.646;2023-04-03T11:17:05;15.8;22.7
78694;SHT31;68029;51.978;5.646;2023-04-03T11:19:42;15.8;22.6
78694;SHT31;68029;51.978;5.646;2023-04-03T11:22:24;15.8;21.8
78694;SHT31;68029;51.978;5.646;2023-04-03T11:25:04;15.8;22.5
78694;SHT31;68029;51.978;5.646;2023-04-03T11:27:41;15.8;23.4
78694;SHT31;68029;51.978;5.646;2023-04-03T11:30:20;15.9;23.0
78694;SHT31;68029;51.978;5.646;2023-04-03T11:33:41;15.9;23.7
78694;SHT31;68029;51.978;5.646;2023-04-03T11:36:22;16.1;21.1
78694;SHT31;68029;51.978;5.646;2023-04-03T11:38:56;16.2;21.5
78694;SHT31;68029;51.978;5.646;2023-04-03T11:41:29;16.2;21.7
78694;SHT31;68029;51.978;5.646;2023-04-03T11:44:04;16.3;22.7
78694;SHT31;68029;51.978;5.646;2023-04-03T11:46:52;16.3;21.5
78694;SHT31;68029;51.978;5.646;2023-04-03T11:49:55;16.4;22.0
78694;SHT31;68029;51.978;5.646;2023-04-03T11:53:01;16.5;23.7
78694;SHT31;68029;51.978;5.646;2023-04-03T11:56:01;16.7;20.7
78694;SHT31;68029;51.978;5.646;2023-04-03T11:58:33;16.7;21.3
78694;SHT31;68029;51.978;5.646;2023-04-03T12:01:07;16.8;21.1
78694;SHT31;68029;51.978;5.646;2023-04-03T12:04:19;16.9;20.3
78694;SHT31;68029;51.978;5.646;2023-04-03T12:10:01;17.0;20.1
78694;SHT31;68029;51.978;5.646;2023-04-03T12:12:37;16.9;20.1
78694;SHT31;68029;51.978;5.646;2023-04-03T12:15:25;16.8;21.7
78694;SHT31;68029;51.978;5.646;2023-04-03T12:17:55;16.8;20.6
78694;SHT31;68029;51.978;5.646;2023-04-03T12:20:57;16.8;21.9
78694;SHT31;68029;51.978;5.646;2023-04-03T12:23:29;16.8;21.8
78694;SHT31;68029;51.978;5.646;2023-04-03T12:26:21;16.8;20.4
78694;SHT31;68029;51.978;5.646;2023-04-03T12:28:54;16.9;21.9
78694;SHT31;68029;51.978;5.646;2023-04-03T12:31:36;16.9;21.4
78694;SHT31;68029;51.978;5.646;2023-04-03T12:34:34;17.0;21.5
78694;SHT31;68029;51.978;5.646;2023-04-03T12:37:21;17.0;22.6
78694;SHT31;68029;51.978;5.646;2023-04-03T12:39:56;17.1;22.8
78694;SHT31;68029;51.978;5.646;2023-04-03T12:42:45;17.3;22.4
78694;SHT31;68029;51.978;5.646;2023-04-03T12:45:20;17.4;20.9
78694;SHT31;68029;51.978;5.646;2023-04-03T12:47:53;17.6;20.5
78694;SHT31;68029;51.978;5.646;2023-04-03T12:50:26;17.6;20.4
78694;SHT31;68029;51.978;5.646;2023-04-03T12:53:02;17.6;20.8
78694;SHT31;68029;51.978;5.646;2023-04-03T12:55:33;17.5;21.1
78694;SHT31;68029;51.978;5.646;2023-04-03T12:58:16;17.4;21.6
78694;SHT31;68029;51.978;5.646;2023-04-03T13:00:48;17.3;21.1
78694;SHT31;68029;51.978;5.646;2023-04-03T13:03:26;17.2;21.0
78694;SHT31;68029;51.978;5.646;2023-04-03T13:06:01;17.1;21.8
78694;SHT31;68029;51.978;5.646;2023-04-03T13:08:32;17.1;22.3
78694;SHT31;68029;51.978;5.646;2023-04-03T13:11:06;17.1;21.1
78694;SHT31;68029;51.978;5.646;2023-04-03T13:13:39;17.1;22.2
78694;SHT31;68029;51.978;5.646;2023-04-03T13:16:11;17.1;21.8
78694;SHT31;68029;51.978;5.646;2023-04-03T13:18:44;17.2;22.0
78694;SHT31;68029;51.978;5.646;2023-04-03T13:21:22;17.2;21.8
78694;SHT31;68029;51.978;5.646;2023-04-03T13:23:56;17.3;21.2
78694;SHT31;68029;51.978;5.646;2023-04-03T13:26:29;17.3;21.2
78694;SHT31;68029;51.978;5.646;2023-04-03T13:29:03;17.3;21.6
78694;SHT31;68029;51.978;5.646;2023-04-03T13:31:36;17.3;21.9
78694;SHT31;68029;51.978;5.646;2023-04-03T13:34:11;17.4;21.3
78694;SHT31;68029;51.978;5.646;2023-04-03T13:36:45;17.4;22.0
78694;SHT31;68029;51.978;5.646;2023-04-03T13:39:24;17.5;21.4
78694;SHT31;68029;51.978;5.646;2023-04-03T13:41:56;17.5;20.9
78694;SHT31;68029;51.978;5.646;2023-04-03T13:44:33;17.5;21.2
78694;SHT31;68029;51.978;5.646;2023-04-03T13:47:17;17.5;22.9
78694;SHT31;68029;51.978;5.646;2023-04-03T13:50:02;17.5;22.6
78694;SHT31;68029;51.978;5.646;2023-04-03T13:52:42;17.6;22.3
78694;SHT31;68029;51.978;5.646;2023-04-03T13:55:20;17.7;21.1
78694;SHT31;68029;51.978;5.646;2023-04-03T13:57:53;17.8;20.9
78694;SHT31;68029;51.978;5.646;2023-04-03T14:00:30;17.9;20.9
78694;SHT31;68029;51.978;5.646;2023-04-03T14:03:11;17.9;21.4
78694;SHT31;68029;51.978;5.646;2023-04-03T14:05:38;17.9;20.0
78694;SHT31;68029;51.978;5.646;2023-04-03T14:08:08;17.8;20.4
78694;SHT31;68029;51.978;5.646;2023-04-03T14:10:38;17.7;20.6
78694;SHT31;68029;51.978;5.646;2023-04-03T14:13:11;17.6;21.5
78694;SHT31;68029;51.978;5.646;2023-04-03T14:15:44;17.5;21.6
78694;SHT31;68029;51.978;5.646;2023-04-03T14:18:18;17.5;22.9
78694;SHT31;68029;51.978;5.646;2023-04-03T14:20:49;17.7;21.8
78694;SHT31;68029;51.978;5.646;2023-04-03T14:23:19;17.8;22.0
78694;SHT31;68029;51.978;5.646;2023-04-03T14:25:51;17.9;22.9
78694;SHT31;68029;51.978;5.646;2023-04-03T14:28:23;18.0;23.0
78694;SHT31;68029;51.978;5.646;2023-04-03T14:30:53;18.1;22.8
78694;SHT31;68029;51.978;5.646;2023-04-03T14:33:23;18.2;21.6
78694;SHT31;68029;51.978;5.646;2023-04-03T14:35:54;18.1;21.5
78694;SHT31;68029;51.978;5.646;2023-04-03T14:38:27;17.9;21.8
78694;SHT31;68029;51.978;5.646;2023-04-03T14:41:00;17.8;21.5
78694;SHT31;68029;51.978;5.646;2023-04-03T14:43:30;17.6;21.9
78694;SHT31;68029;51.978;5.646;2023-04-03T14:46:02;17.4;23.4
78694;SHT31;68029;51.978;5.646;2023-04-03T14:48:31;17.4;23.4
78694;SHT31;68029;51.978;5.646;2023-04-03T14:51:01;17.4;23.4
78694;SHT31;68029;51.978;5.646;2023-04-03T14:53:34;17.5;24.0
78694;SHT31;68029;51.978;5.646;2023-04-03T14:56:11;17.6;23.7
78694;SHT31;68029;51.978;5.646;2023-04-03T14:58:41;17.8;22.9
78694;SHT31;68029;51.978;5.646;2023-04-03T15:01:12;18.0;22.3
78694;SHT31;68029;51.978;5.646;2023-04-03T15:03:44;18.0;21.4
78694;SHT31;68029;51.978;5.646;2023-04-03T15:06:15;18.0;21.7
78694;SHT31;68029;51.978;5.646;2023-04-03T15:08:46;17.8;21.7
78694;SHT31;68029;51.978;5.646;2023-04-03T15:11:16;17.5;23.0
78694;SHT31;68029;51.978;5.646;2023-04-03T15:13:49;17.3;23.7
78694;SHT31;68029;51.978;5.646;2023-04-03T15:16:20;17.2;23.5
78694;SHT31;68029;51.978;5.646;2023-04-03T15:18:52;17.1;23.6
78694;SHT31;68029;51.978;5.646;2023-04-03T15:21:22;16.9;23.8
78694;SHT31;68029;51.978;5.646;2023-04-03T15:23:52;16.7;24.3
78694;SHT31;68029;51.978;5.646;2023-04-03T15:26:22;16.5;25.5
78694;SHT31;68029;51.978;5.646;2023-04-03T15:28:51;16.3;25.2
78694;SHT31;68029;51.978;5.646;2023-04-03T15:31:21;16.1;25.8
78694;SHT31;68029;51.978;5.646;2023-04-03T15:33:53;15.9;25.9
78694;SHT31;68029;51.978;5.646;2023-04-03T15:36:22;15.7;26.9
78694;SHT31;68029;51.978;5.646;2023-04-03T15:38:52;15.5;27.1
78694;SHT31;68029;51.978;5.646;2023-04-03T15:41:22;15.4;26.6
78694;SHT31;68029;51.978;5.646;2023-04-03T15:43:52;15.3;27.0
78694;SHT31;68029;51.978;5.646;2023-04-03T15:46:21;15.1;26.8
78694;SHT31;68029;51.978;5.646;2023-04-03T15:48:51;14.9;27.2
78694;SHT31;68029;51.978;5.646;2023-04-03T15:51:21;14.8;27.1
78694;SHT31;68029;51.978;5.646;2023-04-03T15:53:52;14.6;27.1
78694;SHT31;68029;51.978;5.646;2023-04-03T15:56:22;14.4;27.1
78694;SHT31;68029;51.978;5.646;2023-04-03T15:58:52;14.3;28.0
78694;SHT31;68029;51.978;5.646;2023-04-03T16:01:21;14.1;28.6
78694;SHT31;68029;51.978;5.646;2023-04-03T16:03:51;14.0;28.7
78694;SHT31;68029;51.978;5.646;2023-04-03T16:06:21;13.9;28.9
78694;SHT31;68029;51.978;5.646;2023-04-03T16:08:51;13.8;28.3
78694;SHT31;68029;51.978;5.646;2023-04-03T16:11:25;13.7;28.7
78694;SHT31;68029;51.978;5.646;2023-04-03T16:13:55;13.5;28.7
78694;SHT31;68029;51.978;5.646;2023-04-03T16:16:26;13.4;29.2
78694;SHT31;68029;51.978;5.646;2023-04-03T16:18:57;13.3;29.5
78694;SHT31;68029;51.978;5.646;2023-04-03T16:21:28;13.1;29.8
78694;SHT31;68029;51.978;5.646;2023-04-03T16:23:59;13.0;30.4
78694;SHT31;68029;51.978;5.646;2023-04-03T16:26:31;12.9;30.5
78694;SHT31;68029;51.978;5.646;2023-04-03T16:29:01;12.9;31.1
78694;SHT31;68029;51.978;5.646;2023-04-03T16:31:33;12.8;30.6
78694;SHT31;68029;51.978;5.646;2023-04-03T16:34:05;12.8;30.6
78694;SHT31;68029;51.978;5.646;2023-04-03T16:36:35;12.7;30.5
78694;SHT31;68029;51.978;5.646;2023-04-03T16:39:05;12.6;31.0
78694;SHT31;68029;51.978;5.646;2023-04-03T16:41:36;12.6;34.1
78694;SHT31;68029;51.978;5.646;2023-04-03T16:44:06;12.5;32.1
78694;SHT31;68029;51.978;5.646;2023-04-03T16:46:38;12.5;31.6
78694;SHT31;68029;51.978;5.646;2023-04-03T16:49:08;12.5;31.5
78694;SHT31;68029;51.978;5.646;2023-04-03T16:51:37;12.4;31.6
78694;SHT31;68029;51.978;5.646;2023-04-03T16:54:07;12.3;32.0
78694;SHT31;68029;51.978;5.646;2023-04-03T16:56:38;12.3;32.4
78694;SHT31;68029;51.978;5.646;2023-04-03T16:59:07;12.2;32.5
78694;SHT31;68029;51.978;5.646;2023-04-03T17:01:39;12.2;32.9
78694;SHT31;68029;51.978;5.646;2023-04-03T17:04:08;12.1;32.5
78694;SHT31;68029;51.978;5.646;2023-04-03T17:06:39;12.1;32.2
78694;SHT31;68029;51.978;5.646;2023-04-03T17:09:09;12.0;32.8
78694;SHT31;68029;51.978;5.646;2023-04-03T17:11:39;12.0;32.7
78694;SHT31;68029;51.978;5.646;2023-04-03T17:14:09;11.9;33.2
78694;SHT31;68029;51.978;5.646;2023-04-03T17:16:39;11.9;33.0
78694;SHT31;68029;51.978;5.646;2023-04-03T17:19:11;11.8;33.0
78694;SHT31;68029;51.978;5.646;2023-04-03T17:21:44;11.8;33.6
78694;SHT31;68029;51.978;5.646;2023-04-03T17:24:15;11.7;34.1
78694;SHT31;68029;51.978;5.646;2023-04-03T17:26:44;11.7;34.2
78694;SHT31;68029;51.978;5.646;2023-04-03T17:29:14;11.6;34.7
78694;SHT31;68029;51.978;5.646;2023-04-03T17:31:44;11.6;34.1
78694;SHT31;68029;51.978;5.646;2023-04-03T17:34:14;11.6;32.9
78694;SHT31;68029;51.978;5.646;2023-04-03T17:36:44;11.6;32.4
78694;SHT31;68029;51.978;5.646;2023-04-03T17:39:14;11.5;32.8
78694;SHT31;68029;51.978;5.646;2023-04-03T17:41:44;11.5;32.7
78694;SHT31;68029;51.978;5.646;2023-04-03T17:44:15;11.4;33.0
78694;SHT31;68029;51.978;5.646;2023-04-03T17:46:45;11.3;33.0
78694;SHT31;68029;51.978;5.646;2023-04-03T17:49:15;11.2;33.5
78694;SHT31;68029;51.978;5.646;2023-04-03T17:51:45;11.1;33.2
78694;SHT31;68029;51.978;5.646;2023-04-03T17:54:15;11.1;33.6
78694;SHT31;68029;51.978;5.646;2023-04-03T17:56:47;11.0;34.1
78694;SHT31;68029;51.978;5.646;2023-04-03T17:59:17;10.9;34.4
78694;SHT31;68029;51.978;5.646;2023-04-03T18:01:47;10.9;35.1
78694;SHT31;68029;51.978;5.646;2023-04-03T18:04:19;10.8;34.5
78694;SHT31;68029;51.978;5.646;2023-04-03T18:06:50;10.8;35.1
78694;SHT31;68029;51.978;5.646;2023-04-03T18:09:25;10.8;35.4
78694;SHT31;68029;51.978;5.646;2023-04-03T18:11:56;10.7;35.1
78694;SHT31;68029;51.978;5.646;2023-04-03T18:14:28;10.7;36.1
78694;SHT31;68029;51.978;5.646;2023-04-03T18:16:58;10.7;35.4
78694;SHT31;68029;51.978;5.646;2023-04-03T18:19:28;10.7;35.7
78694;SHT31;68029;51.978;5.646;2023-04-03T18:22:02;10.7;36.5